Time;durP1;ratioP1;P1;durP2;ratioP2;P2;SDS_P1;SDS_P2;PMS_P1;PMS_P2;Temp;Humidity;BMP_temperature;BMP_pressure;BME280_temperature;BME280_humidity;BME280_pressure;Samples;Min_cycle;Max_cycle;Signal;HPM_P1;HPM_P2
2023/08/03 00:00:28;;;;;;;2.40;1.77;;;;;;;;;;5034922;28;20562;-39
2023/08/03 00:03:15;;;;;;;2.13;1.80;;;;;;;;;;5034358;28;20229;-39
2023/08/03 00:05:42;;;;;;;6.60;1.95;;;;;;;;;;5035012;28;20203;-38
2023/08/03 00:08:09;;;;;;;3.92;1.70;;;;;;;;;;5034687;28;20205;-38
2023/08/03 00:10:37;;;;;;;4.15;2.00;;;;;;;;;;5035144;28;20204;-39
2023/08/03 00:13:04;;;;;;;2.75;1.83;;;;;;;;;;5034422;28;20204;-38
2023/08/03 00:15:32;;;;;;;2.35;1.70;;;;;;;;;;5034448;28;20220;-38
2023/08/03 00:17:59;;;;;;;2.83;1.67;;;;;;;;;;5034267;28;20223;-39
2023/08/03 00:20:26;;;;;;;3.30;2.22;;;;;;;;;;5034308;28;20685;-39
2023/08/03 00:22:53;;;;;;;2.50;1.88;;;;;;;;;;5034192;28;20213;-38
2023/08/03 00:25:21;;;;;;;4.53;1.92;;;;;;;;;;5034226;28;20204;-38
2023/08/03 00:27:48;;;;;;;2.42;2.00;;;;;;;;;;5034196;28;20259;-38
2023/08/03 00:30:15;;;;;;;2.75;1.85;;;;;;;;;;5033267;28;20200;-38
2023/08/03 00:32:42;;;;;;;4.43;1.98;;;;;;;;;;5032004;28;20676;-38
2023/08/03 00:35:10;;;;;;;3.60;2.00;;;;;;;;;;5015781;28;20254;-38
2023/08/03 00:37:38;;;;;;;3.35;2.00;;;;;;;;;;5031950;28;20228;-38
2023/08/03 00:40:07;;;;;;;5.13;2.20;;;;;;;;;;5015678;28;20200;-38
2023/08/03 00:42:34;;;;;;;5.78;1.85;;;;;;;;;;5031842;28;20229;-39
2023/08/03 00:45:01;;;;;;;2.47;1.73;;;;;;;;;;5031962;28;20619;-38
2023/08/03 00:47:28;;;;;;;2.63;1.65;;;;;;;;;;5031767;28;20299;-39
2023/08/03 00:49:56;;;;;;;2.40;1.70;;;;;;;;;;5015231;28;20216;-38
2023/08/03 00:52:23;;;;;;;3.35;1.92;;;;;;;;;;5031703;28;20209;-38
2023/08/03 00:54:50;;;;;;;3.88;1.70;;;;;;;;;;5031525;28;20720;-39
2023/08/03 00:57:17;;;;;;;3.03;1.60;;;;;;;;;;5031601;28;20571;-38
2023/08/03 00:59:45;;;;;;;2.80;1.85;;;;;;;;;;5031397;28;20698;-38
2023/08/03 01:02:12;;;;;;;2.83;1.90;;;;;;;;;;5031559;28;20228;-39
2023/08/03 01:04:39;;;;;;;2.88;1.83;;;;;;;;;;5015383;28;20232;-38
2023/08/03 01:07:06;;;;;;;2.10;1.77;;;;;;;;;;5031558;28;20298;-40
2023/08/03 01:09:33;;;;;;;3.28;1.95;;;;;;;;;;5031914;28;20212;-38
2023/08/03 01:12:01;;;;;;;3.15;1.80;;;;;;;;;;5034148;28;20675;-38
2023/08/03 01:14:28;;;;;;;3.10;1.95;;;;;;;;;;5032329;28;20205;-38
2023/08/03 01:16:55;;;;;;;4.57;2.05;;;;;;;;;;5033773;28;20211;-38
2023/08/03 01:19:23;;;;;;;3.03;1.90;;;;;;;;;;5033451;28;20232;-38
2023/08/03 01:21:51;;;;;;;2.25;1.85;;;;;;;;;;5033677;28;20201;-39
2023/08/03 01:24:18;;;;;;;2.28;1.75;;;;;;;;;;5033393;28;20196;-38
2023/08/03 01:26:46;;;;;;;2.08;1.70;;;;;;;;;;5016077;28;20219;-38
2023/08/03 01:29:13;;;;;;;2.13;1.90;;;;;;;;;;5033216;28;20213;-38
2023/08/03 01:31:40;;;;;;;3.15;1.88;;;;;;;;;;5033338;28;20201;-38
2023/08/03 01:34:08;;;;;;;4.43;1.80;;;;;;;;;;5032239;28;20211;-38
2023/08/03 01:36:36;;;;;;;2.13;1.90;;;;;;;;;;5033434;28;20224;-38
2023/08/03 01:39:08;;;;;;;3.33;1.83;;;;;;;;;;5033369;28;20233;-38
2023/08/03 01:41:36;;;;;;;3.08;1.88;;;;;;;;;;5033274;28;20642;-38
2023/08/03 01:44:25;;;;;;;3.40;2.00;;;;;;;;;;5032055;28;20208;-37
2023/08/03 01:46:54;;;;;;;6.03;1.95;;;;;;;;;;5033162;28;20778;-38
2023/08/03 01:49:23;;;;;;;4.20;2.10;;;;;;;;;;5033076;28;20677;-38
2023/08/03 01:51:50;;;;;;;3.25;2.13;;;;;;;;;;5031952;28;20197;-38
2023/08/03 01:54:18;;;;;;;5.30;2.10;;;;;;;;;;5032996;28;20295;-38
2023/08/03 01:56:45;;;;;;;3.13;1.88;;;;;;;;;;5031801;28;20665;-38
2023/08/03 01:59:12;;;;;;;5.55;2.08;;;;;;;;;;5033080;28;20228;-38
2023/08/03 02:01:40;;;;;;;2.05;1.75;;;;;;;;;;5034579;28;20196;-38
2023/08/03 02:04:07;;;;;;;2.90;2.33;;;;;;;;;;5035611;28;20233;-38
2023/08/03 02:06:38;;;;;;;2.80;1.75;;;;;;;;;;5069338;28;20205;-38
2023/08/03 02:09:05;;;;;;;4.05;1.95;;;;;;;;;;5035745;28;20201;-38
2023/08/03 02:11:34;;;;;;;2.55;1.80;;;;;;;;;;5037090;28;20520;-38
2023/08/03 02:14:01;;;;;;;4.00;1.83;;;;;;;;;;5036129;28;20205;-38
2023/08/03 02:16:28;;;;;;;2.10;1.85;;;;;;;;;;5035371;28;20209;-38
2023/08/03 02:18:55;;;;;;;3.85;2.10;;;;;;;;;;5036697;28;20254;-37
2023/08/03 02:21:23;;;;;;;2.25;1.80;;;;;;;;;;5035191;28;20196;-38
2023/08/03 02:23:50;;;;;;;4.63;2.00;;;;;;;;;;5035763;28;20228;-38
2023/08/03 02:26:17;;;;;;;4.03;1.70;;;;;;;;;;5034934;28;20205;-38
2023/08/03 02:28:44;;;;;;;8.15;2.20;;;;;;;;;;5036352;28;20205;-38
2023/08/03 02:31:13;;;;;;;2.55;1.63;;;;;;;;;;5036068;28;20665;-38
2023/08/03 02:33:45;;;;;;;8.93;2.17;;;;;;;;;;5036434;28;20208;-38
2023/08/03 02:36:17;;;;;;;3.72;1.95;;;;;;;;;;5035177;28;20243;-38
2023/08/03 02:38:46;;;;;;;2.58;1.85;;;;;;;;;;5034786;28;20239;-38
2023/08/03 02:41:15;;;;;;;3.30;1.98;;;;;;;;;;5034721;28;20219;-39
2023/08/03 02:43:42;;;;;;;2.17;1.83;;;;;;;;;;5035065;28;20251;-38
2023/08/03 02:46:14;;;;;;;3.15;1.90;;;;;;;;;;5034936;28;20208;-38
2023/08/03 02:48:43;;;;;;;3.05;1.48;;;;;;;;;;5034602;28;20295;-38
2023/08/03 02:51:10;;;;;;;6.78;1.98;;;;;;;;;;5067859;28;20208;-38
2023/08/03 02:53:39;;;;;;;2.83;1.98;;;;;;;;;;5034530;28;20240;-38
2023/08/03 02:56:08;;;;;;;3.35;1.83;;;;;;;;;;5034702;28;20258;-38
2023/08/03 02:58:42;;;;;;;3.22;1.90;;;;;;;;;;5034611;28;20225;-38
2023/08/03 03:01:19;;;;;;;4.18;2.08;;;;;;;;;;5067932;28;20270;-39
2023/08/03 03:03:48;;;;;;;2.75;1.70;;;;;;;;;;5034219;28;20323;-38
2023/08/03 03:06:17;;;;;;;4.13;1.70;;;;;;;;;;5034338;28;20213;-38
2023/08/03 03:08:46;;;;;;;3.45;1.40;;;;;;;;;;5034363;28;20665;-38
2023/08/03 03:11:14;;;;;;;2.72;1.70;;;;;;;;;;5033765;28;20208;-38
2023/08/03 03:13:41;;;;;;;2.92;1.73;;;;;;;;;;5033287;28;20784;-38
2023/08/03 03:16:10;;;;;;;2.65;1.67;;;;;;;;;;5067375;28;20193;-38
2023/08/03 03:18:37;;;;;;;4.30;1.52;;;;;;;;;;5033951;28;20201;-38
2023/08/03 03:21:06;;;;;;;3.67;2.13;;;;;;;;;;5034318;28;20201;-39
2023/08/03 03:23:34;;;;;;;4.18;2.03;;;;;;;;;;5033984;28;20232;-38
2023/08/03 03:26:01;;;;;;;6.15;2.00;;;;;;;;;;5035343;28;20212;-38
2023/08/03 03:28:28;;;;;;;2.60;1.70;;;;;;;;;;5034117;28;20665;-38
2023/08/03 03:30:56;;;;;;;4.00;2.10;;;;;;;;;;5035292;28;20257;-38
2023/08/03 03:33:23;;;;;;;3.63;2.20;;;;;;;;;;5033998;28;20204;-38
2023/08/03 03:35:55;;;;;;;2.70;1.70;;;;;;;;;;5035324;28;20296;-38
2023/08/03 03:38:22;;;;;;;2.33;1.70;;;;;;;;;;5035377;28;20284;-38
2023/08/03 03:40:49;;;;;;;3.10;1.73;;;;;;;;;;5033899;28;20232;-38
2023/08/03 03:43:17;;;;;;;3.67;1.90;;;;;;;;;;5034140;28;20200;-39
2023/08/03 03:45:45;;;;;;;3.22;1.58;;;;;;;;;;5018003;28;20561;-38
2023/08/03 03:48:14;;;;;;;3.15;1.70;;;;;;;;;;5066920;28;20209;-38
2023/08/03 03:50:42;;;;;;;1.75;1.33;;;;;;;;;;5034251;28;20205;-38
2023/08/03 03:53:09;;;;;;;1.83;1.58;;;;;;;;;;5033918;28;20232;-38
2023/08/03 03:55:41;;;;;;;3.08;1.75;;;;;;;;;;5034025;28;20193;-38
2023/08/03 03:58:08;;;;;;;2.47;1.50;;;;;;;;;;5034797;28;20669;-38
2023/08/03 04:00:40;;;;;;;1.88;1.58;;;;;;;;;;5034006;28;20236;-38
2023/08/03 04:03:10;;;;;;;4.07;2.10;;;;;;;;;;5033491;28;20199;-38
2023/08/03 04:05:38;;;;;;;1.42;1.33;;;;;;;;;;5033555;28;20201;-38
2023/08/03 04:08:05;;;;;;;2.83;1.67;;;;;;;;;;5033566;28;20200;-39
2023/08/03 04:10:35;;;;;;;1.35;1.20;;;;;;;;;;5033496;28;20221;-38
2023/08/03 04:13:02;;;;;;;2.80;1.65;;;;;;;;;;5033550;28;20663;-38
2023/08/03 04:15:29;;;;;;;2.45;1.40;;;;;;;;;;5033618;28;20566;-38
2023/08/03 04:17:56;;;;;;;2.85;1.52;;;;;;;;;;5033289;28;20204;-39
2023/08/03 04:20:29;;;;;;;2.58;1.40;;;;;;;;;;5034481;28;20213;-38
2023/08/03 04:22:56;;;;;;;1.88;1.40;;;;;;;;;;5032766;28;20212;-38
2023/08/03 04:25:23;;;;;;;2.00;1.30;;;;;;;;;;5034297;28;20209;-39
2023/08/03 04:27:57;;;;;;;3.03;1.65;;;;;;;;;;5033438;28;20216;-38
2023/08/03 04:30:30;;;;;;;2.75;1.38;;;;;;;;;;5033383;28;20204;-38
2023/08/03 04:32:57;;;;;;;5.47;1.67;;;;;;;;;;5033314;28;20244;-39
2023/08/03 04:35:27;;;;;;;2.67;1.38;;;;;;;;;;5033020;28;20592;-39
2023/08/03 04:38:03;;;;;;;2.05;1.60;;;;;;;;;;5034133;28;20211;-39
2023/08/03 04:40:32;;;;;;;3.00;1.83;;;;;;;;;;5032935;28;20228;-39
2023/08/03 04:42:59;;;;;;;2.15;1.40;;;;;;;;;;5034106;28;20204;-38
2023/08/03 04:45:27;;;;;;;1.95;1.30;;;;;;;;;;5032507;28;20564;-38
2023/08/03 04:47:56;;;;;;;2.25;1.30;;;;;;;;;;5033123;28;20251;-39
2023/08/03 04:50:24;;;;;;;2.67;1.48;;;;;;;;;;5033747;28;20313;-38
2023/08/03 04:52:51;;;;;;;3.00;1.33;;;;;;;;;;5032618;28;20228;-39
2023/08/03 04:55:21;;;;;;;1.80;1.40;;;;;;;;;;5032804;28;20200;-38
2023/08/03 04:57:48;;;;;;;1.60;1.15;;;;;;;;;;5033825;28;20205;-38
2023/08/03 05:00:17;;;;;;;2.70;1.30;;;;;;;;;;5032453;28;20232;-39
2023/08/03 05:02:48;;;;;;;5.95;1.70;;;;;;;;;;5032788;28;20574;-38
2023/08/03 05:05:16;;;;;;;3.78;1.27;;;;;;;;;;5032456;28;20225;-38
2023/08/03 05:07:43;;;;;;;2.72;1.52;;;;;;;;;;5033838;28;20197;-39
2023/08/03 05:10:10;;;;;;;2.80;1.38;;;;;;;;;;5032657;28;20209;-38
2023/08/03 05:12:41;;;;;;;1.73;1.50;;;;;;;;;;5033477;28;20204;-39
2023/08/03 05:15:09;;;;;;;3.40;1.33;;;;;;;;;;5033786;28;20193;-38
2023/08/03 05:17:37;;;;;;;2.03;1.40;;;;;;;;;;5032264;28;20209;-38
2023/08/03 05:20:06;;;;;;;2.05;1.50;;;;;;;;;;5033349;28;20247;-38
2023/08/03 05:22:34;;;;;;;3.53;0.98;;;;;;;;;;5032432;28;20212;-38
2023/08/03 05:25:01;;;;;;;1.48;1.23;;;;;;;;;;5033436;28;20196;-38
2023/08/03 05:27:28;;;;;;;1.40;1.20;;;;;;;;;;5033606;28;20296;-38
2023/08/03 05:29:58;;;;;;;1.70;1.10;;;;;;;;;;5033195;28;20216;-38
2023/08/03 05:32:25;;;;;;;1.30;1.15;;;;;;;;;;5033546;28;20228;-38
2023/08/03 05:34:53;;;;;;;9.50;1.55;;;;;;;;;;5033427;28;20259;-38
2023/08/03 05:37:20;;;;;;;2.78;1.40;;;;;;;;;;5037491;28;20201;-38
2023/08/03 05:39:47;;;;;;;1.85;1.00;;;;;;;;;;5037542;28;20754;-39
2023/08/03 05:42:17;;;;;;;4.13;1.13;;;;;;;;;;5037280;28;20204;-38
2023/08/03 05:44:44;;;;;;;3.50;1.40;;;;;;;;;;5037283;28;20196;-38
2023/08/03 05:47:11;;;;;;;1.70;1.20;;;;;;;;;;5037186;28;20724;-38
2023/08/03 05:49:39;;;;;;;2.22;1.30;;;;;;;;;;5036404;28;20212;-39
2023/08/03 05:52:09;;;;;;;2.67;1.10;;;;;;;;;;5037246;28;20200;-38
2023/08/03 05:54:37;;;;;;;4.05;0.90;;;;;;;;;;5037165;28;20197;-39
2023/08/03 05:57:05;;;;;;;1.92;0.98;;;;;;;;;;5037034;28;20211;-38
2023/08/03 05:59:35;;;;;;;2.03;0.90;;;;;;;;;;5036281;28;20231;-39
2023/08/03 06:02:04;;;;;;;2.58;1.30;;;;;;;;;;5036008;28;20201;-38
2023/08/03 06:04:31;;;;;;;9.50;1.40;;;;;;;;;;5035686;28;20228;-39
2023/08/03 06:06:59;;;;;;;1.38;1.08;;;;;;;;;;5035835;28;20214;-38
2023/08/03 06:09:26;;;;;;;1.90;1.20;;;;;;;;;;5035514;28;20227;-39
2023/08/03 06:11:56;;;;;;;3.05;1.02;;;;;;;;;;5036882;28;20215;-39
2023/08/03 06:14:23;;;;;;;1.40;1.13;;;;;;;;;;5036930;28;20205;-38
2023/08/03 06:16:50;;;;;;;1.77;1.00;;;;;;;;;;5035479;28;20200;-38
2023/08/03 06:19:18;;;;;;;1.70;1.20;;;;;;;;;;5036697;28;20224;-38
2023/08/03 06:21:45;;;;;;;1.70;1.25;;;;;;;;;;5036549;28;20215;-39
2023/08/03 06:24:13;;;;;;;2.10;1.27;;;;;;;;;;5035317;28;20212;-38
2023/08/03 06:26:40;;;;;;;1.25;1.00;;;;;;;;;;5035542;28;20287;-38
2023/08/03 06:29:09;;;;;;;1.63;1.20;;;;;;;;;;5035202;28;20209;-39
2023/08/03 06:31:41;;;;;;;1.70;1.00;;;;;;;;;;5035510;28;20576;-38
2023/08/03 06:34:11;;;;;;;1.65;0.90;;;;;;;;;;5036620;28;20209;-38
2023/08/03 06:36:41;;;;;;;1.00;0.90;;;;;;;;;;5036338;28;20204;-39
2023/08/03 06:39:08;;;;;;;1.60;1.00;;;;;;;;;;5036495;28;20616;-39
2023/08/03 06:41:35;;;;;;;2.10;1.02;;;;;;;;;;5036110;28;20225;-38
2023/08/03 06:44:03;;;;;;;1.92;1.13;;;;;;;;;;5036218;28;20255;-38
2023/08/03 06:46:30;;;;;;;6.07;1.30;;;;;;;;;;5036154;28;20332;-38
2023/08/03 06:48:57;;;;;;;1.83;1.00;;;;;;;;;;5036353;28;20201;-39
2023/08/03 06:51:24;;;;;;;2.10;1.05;;;;;;;;;;5035929;28;20254;-38
2023/08/03 06:53:52;;;;;;;2.28;1.30;;;;;;;;;;5035959;28;20212;-38
2023/08/03 06:56:19;;;;;;;2.53;1.20;;;;;;;;;;5034900;28;20652;-38
2023/08/03 06:58:46;;;;;;;1.20;1.10;;;;;;;;;;5036100;28;20200;-39
2023/08/03 07:01:13;;;;;;;1.10;0.80;;;;;;;;;;5036092;28;20231;-38
2023/08/03 07:03:40;;;;;;;1.60;1.20;;;;;;;;;;5035962;28;20597;-38
2023/08/03 07:06:08;;;;;;;2.97;1.10;;;;;;;;;;5036051;28;20200;-38
2023/08/03 07:08:36;;;;;;;2.80;0.90;;;;;;;;;;5035709;28;20645;-39
2023/08/03 07:11:03;;;;;;;2.75;1.38;;;;;;;;;;5035638;28;20209;-39
2023/08/03 07:13:30;;;;;;;2.17;1.27;;;;;;;;;;5035710;28;20723;-38
2023/08/03 07:16:06;;;;;;;4.43;1.15;;;;;;;;;;5035621;28;20212;-38
2023/08/03 07:18:33;;;;;;;1.77;1.08;;;;;;;;;;5035703;28;20204;-39
2023/08/03 07:21:06;;;;;;;3.38;1.20;;;;;;;;;;5035587;28;20256;-38
2023/08/03 07:23:34;;;;;;;2.60;1.00;;;;;;;;;;5035986;28;20258;-39
2023/08/03 07:26:01;;;;;;;2.75;1.30;;;;;;;;;;5035443;28;20204;-39
2023/08/03 07:28:29;;;;;;;1.95;1.10;;;;;;;;;;5035364;28;20680;-38
2023/08/03 07:30:55;;;;;;;1.40;0.93;;;;;;;;;;5035323;28;20259;-38
2023/08/03 07:33:23;;;;;;;3.70;1.27;;;;;;;;;;5035589;28;20204;-38
2023/08/03 07:35:50;;;;;;;1.38;1.10;;;;;;;;;;5035385;28;20291;-39
2023/08/03 07:38:17;;;;;;;2.65;1.40;;;;;;;;;;5035147;28;20670;-38
2023/08/03 07:40:44;;;;;;;2.08;1.00;;;;;;;;;;5034989;28;20696;-38
2023/08/03 07:43:11;;;;;;;1.23;0.90;;;;;;;;;;5035059;28;20197;-38
2023/08/03 07:45:39;;;;;;;1.88;0.95;;;;;;;;;;5035343;28;20205;-39
2023/08/03 07:48:09;;;;;;;3.85;1.08;;;;;;;;;;5035389;28;20193;-38
2023/08/03 07:50:36;;;;;;;2.17;1.15;;;;;;;;;;5034876;28;20232;-38
2023/08/03 07:53:04;;;;;;;1.90;1.30;;;;;;;;;;5035136;28;20204;-39
2023/08/03 07:55:34;;;;;;;1.63;0.95;;;;;;;;;;5034948;28;20208;-38
2023/08/03 07:58:01;;;;;;;3.03;1.35;;;;;;;;;;5034509;28;20258;-38
2023/08/03 08:00:28;;;;;;;1.58;1.13;;;;;;;;;;5034874;28;20228;-39
2023/08/03 08:02:56;;;;;;;2.15;1.15;;;;;;;;;;5034712;28;20208;-38
2023/08/03 08:05:23;;;;;;;2.60;1.10;;;;;;;;;;5034778;28;20201;-38
2023/08/03 08:07:53;;;;;;;3.53;1.10;;;;;;;;;;5034817;28;20205;-38
2023/08/03 08:10:20;;;;;;;1.95;1.20;;;;;;;;;;5034563;28;20268;-38
2023/08/03 08:12:47;;;;;;;2.30;1.17;;;;;;;;;;5034561;28;20676;-38
2023/08/03 08:15:15;;;;;;;1.60;0.98;;;;;;;;;;5034838;28;20222;-38
2023/08/03 08:17:43;;;;;;;3.15;1.10;;;;;;;;;;5034370;28;20258;-38
2023/08/03 08:20:10;;;;;;;6.15;1.27;;;;;;;;;;5034267;28;20708;-38
2023/08/03 08:22:38;;;;;;;3.92;1.35;;;;;;;;;;5034367;28;20204;-39
2023/08/03 08:25:05;;;;;;;1.67;1.02;;;;;;;;;;5034308;28;20220;-38
2023/08/03 08:27:33;;;;;;;0.90;0.77;;;;;;;;;;5034725;28;20189;-38
2023/08/03 08:30:00;;;;;;;1.27;0.90;;;;;;;;;;5034463;28;20197;-39
2023/08/03 08:32:28;;;;;;;1.35;1.00;;;;;;;;;;5034399;28;20205;-39
2023/08/03 08:34:55;;;;;;;1.42;1.00;;;;;;;;;;5034156;28;20589;-38
2023/08/03 08:37:22;;;;;;;1.48;0.90;;;;;;;;;;5034438;28;20213;-38
2023/08/03 08:39:49;;;;;;;2.15;1.23;;;;;;;;;;5034191;28;20291;-38
2023/08/03 08:42:17;;;;;;;1.65;1.10;;;;;;;;;;5034243;28;20213;-39
2023/08/03 08:44:44;;;;;;;4.35;1.17;;;;;;;;;;5033933;28;20232;-38
2023/08/03 08:47:11;;;;;;;2.47;1.13;;;;;;;;;;5034073;28;20205;-39
2023/08/03 08:49:39;;;;;;;2.13;1.23;;;;;;;;;;5034090;28;20201;-38
2023/08/03 08:52:09;;;;;;;1.05;0.95;;;;;;;;;;5034132;28;20205;-39
2023/08/03 08:54:37;;;;;;;2.35;1.10;;;;;;;;;;5032508;28;20201;-38
2023/08/03 08:57:07;;;;;;;2.65;0.85;;;;;;;;;;5033705;28;20205;-38
2023/08/03 08:59:58;;;;;;;1.63;0.98;;;;;;;;;;5033731;28;20638;-38
2023/08/03 09:02:26;;;;;;;1.60;0.80;;;;;;;;;;5033885;28;20215;-38
2023/08/03 09:04:53;;;;;;;1.95;0.90;;;;;;;;;;5033882;28;20255;-39
2023/08/03 09:07:20;;;;;;;1.15;0.95;;;;;;;;;;5033733;28;20200;-38
2023/08/03 09:09:48;;;;;;;3.00;1.15;;;;;;;;;;5033415;28;20208;-39
2023/08/03 09:12:25;;;;;;;3.70;1.35;;;;;;;;;;5033707;28;20267;-38
2023/08/03 09:14:52;;;;;;;1.20;0.90;;;;;;;;;;5033421;28;20196;-38
2023/08/03 09:17:22;;;;;;;2.15;0.75;;;;;;;;;;5033458;28;20653;-38
2023/08/03 09:19:51;;;;;;;2.67;1.20;;;;;;;;;;5033692;28;20205;-38
2023/08/03 09:22:22;;;;;;;1.50;1.00;;;;;;;;;;5033479;28;20228;-38
2023/08/03 09:25:08;;;;;;;2.10;0.88;;;;;;;;;;5033837;28;20226;-39
2023/08/03 09:27:37;;;;;;;2.38;1.10;;;;;;;;;;5033409;28;20255;-38
2023/08/03 09:30:07;;;;;;;1.27;1.10;;;;;;;;;;5033636;28;20275;-38
2023/08/03 09:32:38;;;;;;;1.52;1.10;;;;;;;;;;5033335;28;20200;-38
2023/08/03 09:35:18;;;;;;;2.10;1.15;;;;;;;;;;5033623;28;20188;-38
2023/08/03 09:37:45;;;;;;;2.85;1.00;;;;;;;;;;5033303;28;20219;-38
2023/08/03 09:40:13;;;;;;;1.50;1.27;;;;;;;;;;5033086;28;20282;-38
2023/08/03 09:42:40;;;;;;;1.08;0.90;;;;;;;;;;5033430;28;20205;-39
2023/08/03 09:45:09;;;;;;;2.25;1.00;;;;;;;;;;5033459;28;20571;-39
2023/08/03 09:47:40;;;;;;;1.70;1.02;;;;;;;;;;5033988;28;20552;-38
2023/08/03 09:50:08;;;;;;;1.48;1.10;;;;;;;;;;5033400;28;20228;-39
2023/08/03 09:52:46;;;;;;;1.67;1.00;;;;;;;;;;5033110;28;20574;-38
2023/08/03 09:55:27;;;;;;;2.55;0.95;;;;;;;;;;5033426;28;20193;-38
2023/08/03 09:58:13;;;;;;;1.35;0.90;;;;;;;;;;5033517;28;20268;-38
2023/08/03 10:00:43;;;;;;;1.25;0.73;;;;;;;;;;5033266;28;20219;-39
2023/08/03 10:03:15;;;;;;;9.10;1.45;;;;;;;;;;5033066;28;20185;-39
2023/08/03 10:06:11;;;;;;;1.73;0.90;;;;;;;;;;5033262;28;20228;-39
2023/08/03 10:08:51;;;;;;;1.88;1.27;;;;;;;;;;5031776;28;20209;-39
2023/08/03 10:11:18;;;;;;;1.30;0.80;;;;;;;;;;5033027;28;20208;-38
2023/08/03 10:13:47;;;;;;;1.42;0.80;;;;;;;;;;5032167;28;20209;-38
2023/08/03 10:16:15;;;;;;;1.13;0.70;;;;;;;;;;5033119;28;20205;-39
2023/08/03 10:18:44;;;;;;;1.77;0.80;;;;;;;;;;5032049;28;20196;-38
2023/08/03 10:21:25;;;;;;;1.23;0.80;;;;;;;;;;5033534;28;20319;-39
2023/08/03 10:24:12;;;;;;;1.52;0.85;;;;;;;;;;5036601;28;20658;-38
2023/08/03 10:26:41;;;;;;;1.02;0.88;;;;;;;;;;5036899;28;20181;-39
2023/08/03 10:29:09;;;;;;;2.97;0.88;;;;;;;;;;5036471;28;20205;-39
2023/08/03 10:31:53;;;;;;;1.45;1.00;;;;;;;;;;5036474;28;20216;-38
2023/08/03 10:34:28;;;;;;;1.45;0.80;;;;;;;;;;5036387;28;20661;-38
2023/08/03 10:36:57;;;;;;;1.20;0.70;;;;;;;;;;5036487;28;20196;-38
2023/08/03 10:39:48;;;;;;;1.15;0.82;;;;;;;;;;5036363;28;20677;-38
2023/08/03 10:42:22;;;;;;;1.73;0.75;;;;;;;;;;5036399;28;20271;-38
2023/08/03 10:44:50;;;;;;;1.35;0.80;;;;;;;;;;5036171;28;20258;-38
2023/08/03 10:47:22;;;;;;;1.10;0.68;;;;;;;;;;5036126;28;20616;-38
2023/08/03 10:49:52;;;;;;;1.77;0.80;;;;;;;;;;5036669;28;20640;-38
2023/08/03 10:52:21;;;;;;;1.70;0.70;;;;;;;;;;5036168;28;20205;-38
2023/08/03 10:54:49;;;;;;;1.63;0.80;;;;;;;;;;5036010;28;20212;-39
2023/08/03 10:57:18;;;;;;;2.45;0.85;;;;;;;;;;5035074;28;20654;-38
2023/08/03 10:59:47;;;;;;;1.60;0.80;;;;;;;;;;5035884;28;20209;-38
2023/08/03 11:02:22;;;;;;;1.63;0.90;;;;;;;;;;5034917;28;20317;-39
2023/08/03 11:04:53;;;;;;;0.73;0.73;;;;;;;;;;5035888;28;20647;-39
2023/08/03 11:07:23;;;;;;;2.08;0.90;;;;;;;;;;5036012;28;20223;-38
2023/08/03 11:09:52;;;;;;;1.55;0.57;;;;;;;;;;5036284;28;20564;-38
2023/08/03 11:12:19;;;;;;;1.90;0.70;;;;;;;;;;5035963;28;20219;-38
2023/08/03 11:14:49;;;;;;;2.78;0.70;;;;;;;;;;5035991;28;20208;-39
2023/08/03 11:17:16;;;;;;;2.05;0.80;;;;;;;;;;5035827;28;20197;-39
2023/08/03 11:19:43;;;;;;;1.15;0.70;;;;;;;;;;5034724;28;20209;-39
2023/08/03 11:22:11;;;;;;;1.92;0.80;;;;;;;;;;5034857;28;20320;-39
2023/08/03 11:24:39;;;;;;;2.30;0.80;;;;;;;;;;5035405;28;20724;-38
2023/08/03 11:27:06;;;;;;;1.30;0.98;;;;;;;;;;5034371;28;20211;-39
2023/08/03 11:29:35;;;;;;;1.17;0.80;;;;;;;;;;5034571;28;20220;-40
2023/08/03 11:32:04;;;;;;;1.38;0.60;;;;;;;;;;5035636;28;20209;-39
2023/08/03 11:34:34;;;;;;;5.55;0.80;;;;;;;;;;5034344;28;20232;-38
2023/08/03 11:37:01;;;;;;;1.35;0.73;;;;;;;;;;5035516;28;20227;-38
2023/08/03 11:39:29;;;;;;;1.45;0.90;;;;;;;;;;5035399;28;20201;-38
2023/08/03 11:41:56;;;;;;;1.45;0.80;;;;;;;;;;5035416;28;20231;-38
2023/08/03 11:44:24;;;;;;;2.10;0.90;;;;;;;;;;5035314;28;20208;-38
2023/08/03 11:47:01;;;;;;;3.42;1.02;;;;;;;;;;5035011;28;20197;-39
2023/08/03 11:49:30;;;;;;;1.05;0.90;;;;;;;;;;5035020;28;20240;-38
2023/08/03 11:51:59;;;;;;;1.70;0.90;;;;;;;;;;5033806;28;20207;-38
2023/08/03 11:54:29;;;;;;;1.00;0.80;;;;;;;;;;5035142;28;20213;-38
2023/08/03 11:59:44;;;;;;;1.35;0.82;;;;;;;;;;5034824;28;20669;-38
2023/08/03 12:02:11;;;;;;;1.60;0.80;;;;;;;;;;5034626;28;20668;-39
2023/08/03 12:04:39;;;;;;;1.60;0.85;;;;;;;;;;5035079;28;20243;-39
2023/08/03 12:07:16;;;;;;;1.23;0.80;;;;;;;;;;5034651;28;20207;-38
2023/08/03 12:09:50;;;;;;;1.55;0.98;;;;;;;;;;5035065;28;20193;-38
2023/08/03 12:12:17;;;;;;;1.83;0.65;;;;;;;;;;5034727;28;20295;-38
2023/08/03 12:14:44;;;;;;;1.40;1.08;;;;;;;;;;5034694;28;20204;-38
2023/08/03 12:17:12;;;;;;;2.72;1.02;;;;;;;;;;5034476;28;20291;-38
2023/08/03 12:19:39;;;;;;;1.30;0.75;;;;;;;;;;5034322;28;20670;-39
2023/08/03 12:22:07;;;;;;;2.38;0.85;;;;;;;;;;5033066;28;20270;-38
2023/08/03 12:24:39;;;;;;;1.58;0.90;;;;;;;;;;5034402;28;20292;-39
2023/08/03 12:27:06;;;;;;;1.08;0.80;;;;;;;;;;5034279;28;20684;-38
2023/08/03 12:29:37;;;;;;;1.90;0.95;;;;;;;;;;5034772;28;20204;-39
2023/08/03 12:32:08;;;;;;;2.10;1.08;;;;;;;;;;5034254;28;20646;-38
2023/08/03 12:34:35;;;;;;;1.40;0.98;;;;;;;;;;5034441;28;20196;-39
2023/08/03 12:37:03;;;;;;;1.25;0.82;;;;;;;;;;5034359;28;20262;-38
2023/08/03 12:39:30;;;;;;;2.08;1.00;;;;;;;;;;5033927;28;20204;-38
2023/08/03 12:41:57;;;;;;;1.17;0.80;;;;;;;;;;5034151;28;20224;-38
2023/08/03 12:44:26;;;;;;;1.05;0.80;;;;;;;;;;5034055;28;20311;-39
2023/08/03 12:46:53;;;;;;;1.27;0.98;;;;;;;;;;5034398;28;20201;-39
2023/08/03 12:49:21;;;;;;;1.58;1.00;;;;;;;;;;5033831;28;20685;-38
2023/08/03 12:51:48;;;;;;;3.03;1.30;;;;;;;;;;5034021;28;20211;-38
2023/08/03 12:54:15;;;;;;;1.58;0.90;;;;;;;;;;5033911;28;20192;-38
2023/08/03 12:56:42;;;;;;;2.45;0.90;;;;;;;;;;5033982;28;20620;-38
2023/08/03 12:59:10;;;;;;;1.67;0.93;;;;;;;;;;5034002;28;20209;-38
2023/08/03 13:01:37;;;;;;;1.15;0.90;;;;;;;;;;5032731;28;20307;-39
2023/08/03 13:04:05;;;;;;;2.20;1.02;;;;;;;;;;5033804;28;20229;-38
2023/08/03 13:06:32;;;;;;;1.10;0.88;;;;;;;;;;5033868;28;20213;-38
2023/08/03 13:09:00;;;;;;;2.60;1.05;;;;;;;;;;5033839;28;20212;-38
2023/08/03 13:11:27;;;;;;;2.80;1.20;;;;;;;;;;5033417;28;20216;-39
2023/08/03 13:13:54;;;;;;;1.60;1.15;;;;;;;;;;5033729;28;20201;-39
2023/08/03 13:16:22;;;;;;;1.95;1.15;;;;;;;;;;5032455;28;20197;-38
2023/08/03 13:18:50;;;;;;;1.90;1.27;;;;;;;;;;5033431;28;20219;-38
2023/08/03 13:21:17;;;;;;;2.40;1.10;;;;;;;;;;5033603;28;20204;-38
2023/08/03 13:23:49;;;;;;;1.90;1.13;;;;;;;;;;5033950;28;20617;-38
2023/08/03 13:26:16;;;;;;;1.85;0.90;;;;;;;;;;5033324;28;20228;-38
2023/08/03 13:28:46;;;;;;;2.67;1.20;;;;;;;;;;5033376;28;20212;-39
2023/08/03 13:31:13;;;;;;;1.95;0.85;;;;;;;;;;5033338;28;20208;-39
2023/08/03 13:33:40;;;;;;;1.95;1.20;;;;;;;;;;5033591;28;20207;-38
2023/08/03 13:36:07;;;;;;;1.42;0.98;;;;;;;;;;5033379;28;20209;-38
2023/08/03 13:38:34;;;;;;;1.42;1.02;;;;;;;;;;5033656;28;20204;-39
2023/08/03 13:41:04;;;;;;;1.92;0.90;;;;;;;;;;5033552;28;20201;-39
2023/08/03 13:43:32;;;;;;;2.60;0.95;;;;;;;;;;5033165;28;20217;-38
2023/08/03 13:46:00;;;;;;;1.40;1.17;;;;;;;;;;5033182;28;20215;-38
2023/08/03 13:48:27;;;;;;;1.60;0.82;;;;;;;;;;5033163;28;20727;-38
2023/08/03 13:50:54;;;;;;;2.42;0.77;;;;;;;;;;5033370;28;20208;-38
2023/08/03 13:53:26;;;;;;;1.25;0.90;;;;;;;;;;5033356;28;20657;-38
2023/08/03 13:55:53;;;;;;;1.52;1.02;;;;;;;;;;5033429;28;20227;-39
2023/08/03 13:58:21;;;;;;;0.77;0.52;;;;;;;;;;5037248;28;20196;-38
2023/08/03 14:00:51;;;;;;;1.25;0.80;;;;;;;;;;5037034;28;20593;-38
2023/08/03 14:03:18;;;;;;;6.75;1.23;;;;;;;;;;5035594;28;20252;-37
2023/08/03 14:06:00;;;;;;;1.90;1.02;;;;;;;;;;5037230;28;20254;-38
2023/08/03 14:08:30;;;;;;;2.30;1.10;;;;;;;;;;5036897;28;20189;-38
2023/08/03 14:11:18;;;;;;;1.33;0.88;;;;;;;;;;5037245;28;20204;-38
2023/08/03 14:13:46;;;;;;;1.90;0.90;;;;;;;;;;5036832;28;20669;-37
2023/08/03 14:16:17;;;;;;;1.40;0.90;;;;;;;;;;5036803;28;20637;-38
2023/08/03 14:18:48;;;;;;;1.25;0.70;;;;;;;;;;5036787;28;20259;-37
2023/08/03 14:21:15;;;;;;;2.05;0.90;;;;;;;;;;5036467;28;20288;-38
2023/08/03 14:24:02;;;;;;;1.80;0.90;;;;;;;;;;5036858;28;20200;-37
2023/08/03 14:26:29;;;;;;;2.08;1.02;;;;;;;;;;5036711;28;20235;-37
2023/08/03 14:28:57;;;;;;;2.10;0.93;;;;;;;;;;5036770;28;20284;-37
2023/08/03 14:31:26;;;;;;;3.65;1.23;;;;;;;;;;5036537;28;20284;-37
2023/08/03 14:33:54;;;;;;;2.33;1.15;;;;;;;;;;5036801;28;20189;-38
2023/08/03 14:36:21;;;;;;;1.67;0.88;;;;;;;;;;5036696;28;20262;-38
2023/08/03 14:38:48;;;;;;;1.38;0.93;;;;;;;;;;5036716;28;20231;-37
2023/08/03 14:41:18;;;;;;;2.53;1.35;;;;;;;;;;5036564;28;20196;-38
2023/08/03 14:43:45;;;;;;;1.75;1.10;;;;;;;;;;5036464;28;20595;-38
2023/08/03 14:46:13;;;;;;;2.03;1.00;;;;;;;;;;5035966;28;20684;-37
2023/08/03 14:48:43;;;;;;;2.17;1.13;;;;;;;;;;5036766;28;20197;-38
2023/08/03 14:51:13;;;;;;;3.70;1.10;;;;;;;;;;5036677;28;20201;-39
2023/08/03 14:53:43;;;;;;;3.67;1.27;;;;;;;;;;5035144;28;20204;-38
2023/08/03 14:56:10;;;;;;;2.65;1.30;;;;;;;;;;5036336;28;20228;-37